Time;durP1;ratioP1;P1;durP2;ratioP2;P2;SDS_P1;SDS_P2;PMS_P1;PMS_P2;Temp;Humidity;BMP_temperature;BMP_pressure;BME280_temperature;BME280_humidity;BME280_pressure;Samples;Min_cycle;Max_cycle;Signal;HPM_P1;HPM_P2
2022/05/08 07:27:10;;;;;;;;;;;;;;;13.32;100.00;98748.19;5548118;23;20321;-71
2022/05/08 07:29:41;;;;;;;;;;;;;;;13.33;100.00;98744.16;4903534;29;19957;-71
2022/05/08 07:32:08;;;;;;;;;;;;;;;13.41;100.00;98739.34;4902305;29;19966;-71
2022/05/08 07:37:23;;;;;;;;;;;;;;;13.45;100.00;98760.59;4904680;29;19966;-71
2022/05/08 07:39:50;;;;;;;;;;;;;;;13.48;100.00;98756.97;4904762;29;19957;-71
2022/05/08 07:42:17;;;;;;;;;;;;;;;13.49;100.00;98758.59;4905233;29;19981;-71
2022/05/08 07:44:45;;;;;;;;;;;;;;;13.50;100.00;98764.97;4905267;29;19950;-71
2022/05/08 07:47:13;;;;;;;;;;;;;;;13.49;100.00;98775.44;4896210;29;19955;-71
2022/05/08 07:49:41;;;;;;;;;;;;;;;13.50;100.00;98779.84;4903747;29;19950;-71
2022/05/08 07:52:08;;;;;;;;;;;;;;;13.51;100.00;98775.03;4901632;29;19981;-71
2022/05/08 07:54:35;;;;;;;;;;;;;;;13.52;100.00;98771.03;4908166;29;20023;-71
2022/05/08 07:57:03;;;;;;;;;;;;;;;13.53;100.00;98775.41;4904120;29;19948;-71
2022/05/08 07:59:30;;;;;;;;;;;;;;;13.57;100.00;98776.22;4903704;29;19977;-72
2022/05/08 08:01:57;;;;;;;;;;;;;;;13.61;100.00;98772.19;4914209;29;20253;-72
2022/05/08 08:04:25;;;;;;;;;;;;;;;13.66;100.00;98777.41;4906243;29;19962;-72
2022/05/08 08:06:52;;;;;;;;;;;;;;;13.67;100.00;98773.34;4917464;29;19954;-72
2022/05/08 08:09:20;;;;;;;;;;;;;;;13.71;100.00;98778.97;4913852;29;19947;-72
2022/05/08 08:11:47;;;;;;;;;;;;;;;13.74;100.00;98780.97;4896311;29;19954;-72
2022/05/08 08:14:14;;;;;;;;;;;;;;;13.77;100.00;98785.75;4903796;29;19948;-72
2022/05/08 08:16:53;;;;;;;;;;;;;;;13.76;100.00;98785.00;4899294;29;20248;-72
2022/05/08 08:19:21;;;;;;;;;;;;;;;13.79;100.00;98784.16;4904500;29;20401;-72
2022/05/08 08:21:49;;;;;;;;;;;;;;;13.78;100.00;98785.38;4903138;29;20247;-72
2022/05/08 08:24:16;;;;;;;;;;;;;;;13.86;100.00;98793.78;4902688;29;20242;-72
2022/05/08 08:26:43;;;;;;;;;;;;;;;13.88;100.00;98792.16;4907190;29;19977;-72
2022/05/08 08:29:11;;;;;;;;;;;;;;;13.92;100.00;98787.31;4902664;29;19956;-72
2022/05/08 08:31:38;;;;;;;;;;;;;;;13.98;100.00;98796.13;4909386;29;19974;-72
2022/05/08 08:34:05;;;;;;;;;;;;;;;14.03;100.00;98801.34;4910260;29;19947;-72
2022/05/08 08:36:32;;;;;;;;;;;;;;;14.03;100.00;98795.72;4906932;29;19954;-72
2022/05/08 08:38:59;;;;;;;;;;;;;;;14.03;100.00;98806.97;4910290;29;20051;-72
2022/05/08 08:41:31;;;;;;;;;;;;;;;13.99;100.00;98812.59;4911723;29;19953;-73
2022/05/08 08:49:34;;;;;;;;;;;;;;;14.02;100.00;98816.59;4910200;29;20334;-72
2022/05/08 08:52:03;;;;;;;;;;;;;;;14.03;100.00;98818.22;4901651;29;19954;-72
2022/05/08 08:54:30;;;;;;;;;;;;;;;14.04;100.00;98822.59;4902726;29;19956;-73
2022/05/08 08:56:57;;;;;;;;;;;;;;;14.04;100.00;98817.78;4905949;29;19956;-72
2022/05/08 08:59:27;;;;;;;;;;;;;;;14.05;100.00;98824.22;4909989;29;20389;-72
2022/05/08 09:01:55;;;;;;;;;;;;;;;14.09;100.00;98825.00;4917296;29;20265;-72
2022/05/08 09:04:23;;;;;;;;;;;;;;;14.07;100.00;98824.59;4903531;29;20264;-73
2022/05/08 09:06:50;;;;;;;;;;;;;;;14.06;100.00;98825.84;4901101;29;19951;-72
2022/05/08 09:09:27;;;;;;;;;;;;;;;14.05;100.00;98821.41;4904618;29;20356;-72
2022/05/08 09:11:55;;;;;;;;;;;;;;;14.07;100.00;98821.78;4899834;29;19946;-72
2022/05/08 09:14:49;;;;;;;;;;;;;;;14.10;100.00;98824.59;4903554;29;19958;-72
2022/05/08 09:17:16;;;;;;;;;;;;;;;14.13;100.00;98831.44;4895776;29;19955;-72
2022/05/08 09:19:44;;;;;;;;;;;;;;;14.14;100.00;98830.19;4901620;29;19966;-72
2022/05/08 09:22:12;;;;;;;;;;;;;;;14.17;100.00;98832.19;4904888;29;20351;-72
2022/05/08 09:24:53;;;;;;;;;;;;;;;14.16;100.00;98828.59;4910616;29;19958;-72
2022/05/08 09:27:20;;;;;;;;;;;;;;;14.23;100.00;98830.56;4899552;29;19971;-72
2022/05/08 09:29:48;;;;;;;;;;;;;;;14.27;100.00;98826.53;4899166;29;20238;-72
2022/05/08 09:32:39;;;;;;;;;;;;;;;14.37;100.00;98820.09;4903438;29;19973;-72
2022/05/08 09:35:06;;;;;;;;;;;;;;;14.47;100.00;98824.03;4904203;29;19948;-72
2022/05/08 09:37:50;;;;;;;;;;;;;;;14.59;100.00;98825.56;4902183;29;19956;-72
2022/05/08 09:40:18;;;;;;;;;;;;;;;14.66;100.00;98831.16;4904238;29;19973;-72
2022/05/08 09:42:48;;;;;;;;;;;;;;;14.71;100.00;98823.06;4908057;29;20454;-72
2022/05/08 09:45:15;;;;;;;;;;;;;;;14.78;100.00;98825.03;4901143;29;19951;-73
2022/05/08 09:47:46;;;;;;;;;;;;;;;14.81;100.00;98821.41;4906950;29;19949;-72
2022/05/08 09:50:31;;;;;;;;;;;;;;;14.86;100.00;98823.78;4916588;29;19961;-72
2022/05/08 09:52:59;;;;;;;;;;;;;;;14.93;100.00;98827.34;4902979;29;20247;-72
2022/05/08 09:55:26;;;;;;;;;;;;;;;14.98;100.00;98817.66;4903403;29;20240;-73
2022/05/08 09:57:53;;;;;;;;;;;;;;;14.99;100.00;98822.84;4895925;29;19949;-72
2022/05/08 10:00:22;;;;;;;;;;;;;;;15.09;100.00;98809.91;4902560;29;19984;-72
2022/05/08 10:02:49;;;;;;;;;;;;;;;15.19;100.00;98811.81;4901146;29;19950;-72
2022/05/08 10:05:17;;;;;;;;;;;;;;;15.31;100.00;98813.34;4902006;29;20243;-72
2022/05/08 10:07:44;;;;;;;;;;;;;;;15.41;100.00;98806.78;4899886;29;19955;-72
2022/05/08 10:15:48;;;;;;;;;;;;;;;15.90;100.00;98803.44;4907690;29;21319;-72
2022/05/08 10:18:22;;;;;;;;;;;;;;;16.10;100.00;98812.06;4905130;29;19950;-72
2022/05/08 10:21:03;;;;;;;;;;;;;;;16.35;100.00;98801.28;4901064;29;19954;-73
2022/05/08 10:23:37;;;;;;;;;;;;;;;16.42;100.00;98812.47;4901518;29;19956;-73
2022/05/08 10:26:14;;;;;;;;;;;;;;;16.54;100.00;98802.63;4894409;29;19953;-73
2022/05/08 10:29:00;;;;;;;;;;;;;;;16.75;100.00;98803.09;4899629;29;19953;-73
2022/05/08 10:31:40;;;;;;;;;;;;;;;17.02;100.00;98806.72;4894967;29;19950;-72
2022/05/08 10:34:08;;;;;;;;;;;;;;;17.17;100.00;98807.28;4892400;29;19954;-72
2022/05/08 10:36:36;;;;;;;;;;;;;;;17.36;100.00;98806.53;4897110;29;19951;-72
2022/05/08 10:39:41;;;;;;;;;;;;;;;17.49;100.00;98813.16;4897715;29;19968;-72
2022/05/08 10:42:24;;;;;;;;;;;;;;;17.60;100.00;98810.19;4803690;29;20280;-72
2022/05/08 10:44:51;;;;;;;;;;;;;;;17.55;100.00;98808.66;4808071;29;19974;-72
2022/05/08 10:47:37;;;;;;;;;;;;;;;17.46;100.00;98811.19;4860172;29;19947;-72
2022/05/08 10:50:05;;;;;;;;;;;;;;;17.60;100.00;98813.81;4900515;29;19955;-71
2022/05/08 10:52:34;;;;;;;;;;;;;;;17.62;100.00;98817.00;4901138;29;19958;-71
2022/05/08 10:55:02;;;;;;;;;;;;;;;17.57;100.00;98813.88;4901999;29;19949;-72
2022/05/08 10:57:31;;;;;;;;;;;;;;;17.46;100.00;98813.25;4897354;29;19948;-72
2022/05/08 10:59:59;;;;;;;;;;;;;;;17.43;100.00;98814.91;4901350;29;20355;-72
2022/05/08 11:02:56;;;;;;;;;;;;;;;17.42;100.00;98816.13;4886861;29;20357;-72
2022/05/08 11:05:27;;;;;;;;;;;;;;;17.38;100.00;98812.56;4890307;29;19955;-72
2022/05/08 11:08:10;;;;;;;;;;;;;;;17.38;100.00;98804.09;4886977;29;19955;-72
2022/05/08 11:10:39;;;;;;;;;;;;;;;17.39;100.00;98808.50;4895254;29;19964;-72
2022/05/08 11:13:10;;;;;;;;;;;;;;;17.35;100.00;98799.28;4902236;29;19955;-72
2022/05/08 11:15:43;;;;;;;;;;;;;;;17.19;100.00;98798.38;4901950;29;19949;-72
2022/05/08 11:18:10;;;;;;;;;;;;;;;17.03;100.00;98799.03;4901153;29;20224;-72
2022/05/08 11:20:59;;;;;;;;;;;;;;;17.08;100.00;98795.72;4901648;29;20310;-72
2022/05/08 11:23:31;;;;;;;;;;;;;;;17.02;100.00;98797.44;4886846;29;20244;-72
2022/05/08 11:26:05;;;;;;;;;;;;;;;16.99;100.00;98795.50;4897875;29;19957;-72
2022/05/08 11:28:34;;;;;;;;;;;;;;;17.03;100.00;98797.03;4891089;29;19965;-71
2022/05/08 11:31:11;;;;;;;;;;;;;;;17.08;100.00;98798.56;4892460;29;19976;-72
2022/05/08 11:36:26;;;;;;;;;;;;;;;16.91;100.00;98796.81;4898983;29;19955;-72
2022/05/08 11:38:56;;;;;;;;;;;;;;;16.97;100.00;98795.91;4882973;29;19956;-72
2022/05/08 11:41:25;;;;;;;;;;;;;;;16.87;100.00;98793.25;4899301;29;19951;-72
2022/05/08 11:43:53;;;;;;;;;;;;;;;16.95;100.00;98794.72;4899987;29;19967;-72
2022/05/08 11:46:31;;;;;;;;;;;;;;;16.97;100.00;98783.81;4899595;29;19955;-72
2022/05/08 11:48:59;;;;;;;;;;;;;;;17.13;100.00;98795.25;4899839;29;19951;-72
2022/05/08 11:51:37;;;;;;;;;;;;;;;17.11;100.00;98789.22;4897174;29;19948;-72
2022/05/08 11:54:04;;;;;;;;;;;;;;;17.32;100.00;98790.88;4894689;29;19952;-72
2022/05/08 11:56:32;;;;;;;;;;;;;;;17.44;100.00;98785.38;4895169;29;20252;-72
2022/05/08 11:59:00;;;;;;;;;;;;;;;17.52;100.00;98786.09;4901433;29;19945;-72
2022/05/08 12:01:28;;;;;;;;;;;;;;;17.47;100.00;98783.72;4900636;29;19958;-72
2022/05/08 12:03:56;;;;;;;;;;;;;;;17.43;100.00;98795.13;4899561;29;19955;-72
2022/05/08 12:06:24;;;;;;;;;;;;;;;17.39;100.00;98800.03;4897000;29;19952;-72
2022/05/08 12:08:52;;;;;;;;;;;;;;;17.49;100.00;98793.38;4901405;29;20345;-72
2022/05/08 12:11:37;;;;;;;;;;;;;;;17.43;100.00;98797.94;4901788;29;19956;-72
2022/05/08 12:14:05;;;;;;;;;;;;;;;17.49;100.00;98801.84;4900093;29;19956;-72
2022/05/08 12:16:34;;;;;;;;;;;;;;;17.60;100.00;98796.84;4898525;29;19953;-72
2022/05/08 12:19:11;;;;;;;;;;;;;;;17.66;100.00;98797.94;4904493;29;19949;-71
2022/05/08 12:21:39;;;;;;;;;;;;;;;17.72;100.00;98786.91;4903921;29;19958;-72
2022/05/08 12:24:10;;;;;;;;;;;;;;;17.59;100.00;98795.25;4901999;29;19950;-72
2022/05/08 12:26:37;;;;;;;;;;;;;;;17.54;100.00;98798.56;4901379;29;19957;-72
2022/05/08 12:29:14;;;;;;;;;;;;;;;17.48;100.00;98794.59;4901689;29;19952;-72
2022/05/08 12:31:41;;;;;;;;;;;;;;;17.51;100.00;98790.09;4898631;29;19949;-72
2022/05/08 12:34:11;;;;;;;;;;;;;;;17.40;100.00;98783.84;4903295;29;19959;-72
2022/05/08 12:36:39;;;;;;;;;;;;;;;17.42;100.00;98782.19;4899273;29;20344;-73
2022/05/08 12:39:08;;;;;;;;;;;;;;;17.37;100.00;98791.19;4900018;29;19947;-72
2022/05/08 12:41:37;;;;;;;;;;;;;;;17.28;100.00;98785.28;4902150;29;21448;-72
2022/05/08 12:44:05;;;;;;;;;;;;;;;17.26;100.00;98789.78;4905242;29;19951;-72
2022/05/08 12:46:33;;;;;;;;;;;;;;;17.25;100.00;98779.69;4900305;29;19953;-72
2022/05/08 12:49:02;;;;;;;;;;;;;;;17.26;100.00;98784.13;4899632;29;19962;-72
2022/05/08 12:51:34;;;;;;;;;;;;;;;17.26;100.00;98784.94;4903610;29;19948;-72
2022/05/08 12:54:03;;;;;;;;;;;;;;;17.32;100.00;98771.88;4901672;29;19949;-72
2022/05/08 12:56:31;;;;;;;;;;;;;;;17.42;100.00;98767.25;4899267;29;19948;-72
2022/05/08 13:01:44;;;;;;;;;;;;;;;17.42;100.00;98776.53;4895936;29;19953;-72
2022/05/08 13:04:12;;;;;;;;;;;;;;;17.53;100.00;98774.34;4891147;29;19949;-72
2022/05/08 13:06:39;;;;;;;;;;;;;;;17.58;100.00;98775.88;4903599;29;19943;-72
2022/05/08 13:09:07;;;;;;;;;;;;;;;17.78;100.00;98770.25;4900661;29;19954;-71
2022/05/08 13:11:35;;;;;;;;;;;;;;;17.94;100.00;98759.78;4901672;29;20391;-71
2022/05/08 13:14:03;;;;;;;;;;;;;;;18.04;100.00;98763.63;4901516;29;19949;-72
2022/05/08 13:16:30;;;;;;;;;;;;;;;18.11;100.00;98761.44;4902946;29;20012;-72
2022/05/08 13:18:58;;;;;;;;;;;;;;;18.04;100.00;98753.13;4894116;29;19972;-72
2022/05/08 13:21:26;;;;;;;;;;;;;;;17.94;100.00;98754.13;4893184;29;19973;-72
2022/05/08 13:23:55;;;;;;;;;;;;;;;17.93;100.00;98754.56;4882373;29;19954;-72
2022/05/08 13:26:22;;;;;;;;;;;;;;;18.07;100.00;98754.28;4899421;29;20360;-73
2022/05/08 13:28:49;;;;;;;;;;;;;;;18.09;100.00;98758.25;5103307;23;19980;-74
2022/05/08 13:31:17;;;;;;;;;;;;;;;18.23;100.00;98745.81;4886674;29;19949;-75
2022/05/08 13:33:44;;;;;;;;;;;;;;;18.23;100.00;98751.47;4887287;29;19953;-75
2022/05/08 13:36:12;;;;;;;;;;;;;;;18.09;100.00;98744.13;4886796;29;19955;-74
2022/05/08 13:38:41;;;;;;;;;;;;;;;18.07;100.00;98745.78;4886625;29;20355;-74
2022/05/08 13:41:09;;;;;;;;;;;;;;;17.96;100.00;98743.16;4882782;29;19970;-75
2022/05/08 13:43:36;;;;;;;;;;;;;;;17.97;100.00;98746.81;4880117;29;19956;-75
2022/05/08 13:46:04;;;;;;;;;;;;;;;17.86;100.00;98749.03;4884680;29;20592;-73
2022/05/08 13:48:32;;;;;;;;;;;;;;;17.87;100.00;98739.34;4884155;29;19957;-74
2022/05/08 13:50:59;;;;;;;;;;;;;;;17.57;100.00;98746.81;4885739;29;19946;-72
2022/05/08 13:53:27;;;;;;;;;;;;;;;17.70;100.00;98741.31;4882199;29;19948;-73
2022/05/08 13:55:56;;;;;;;;;;;;;;;17.74;100.00;98742.03;4885005;29;20245;-72
2022/05/08 13:58:23;;;;;;;;;;;;;;;17.79;100.00;98737.88;4881607;29;19949;-73
2022/05/08 14:00:55;;;;;;;;;;;;;;;17.84;100.00;98740.19;4887371;29;20280;-72
2022/05/08 14:03:24;;;;;;;;;;;;;;;17.85;100.00;98736.16;4887149;29;19982;-72
2022/05/08 14:05:51;;;;;;;;;;;;;;;17.85;100.00;98738.97;4882945;29;19954;-73
2022/05/08 14:08:19;;;;;;;;;;;;;;;17.73;100.00;98738.38;4889521;29;19956;-72
2022/05/08 14:10:47;;;;;;;;;;;;;;;17.81;100.00;98736.22;4881935;29;19949;-72
2022/05/08 14:13:14;;;;;;;;;;;;;;;17.97;100.00;98727.00;4880029;29;19971;-71
2022/05/08 14:15:41;;;;;;;;;;;;;;;18.02;100.00;98729.31;4878688;29;20240;-72
2022/05/08 14:18:09;;;;;;;;;;;;;;;18.09;100.00;98734.81;4881133;29;19950;-75
2022/05/08 14:20:38;;;;;;;;;;;;;;;18.15;100.00;98721.72;4878334;29;19972;-74
2022/05/08 14:23:05;;;;;;;;;;;;;;;18.22;100.00;98728.03;4876195;29;19949;-73
2022/05/08 14:25:32;;;;;;;;;;;;;;;18.25;100.00;98732.03;4882621;29;19954;-73
2022/05/08 14:28:01;;;;;;;;;;;;;;;18.30;100.00;98725.84;4882324;29;19987;-75
2022/05/08 14:30:28;;;;;;;;;;;;;;;18.29;100.00;98729.94;4875179;29;19950;-72
2022/05/08 14:38:30;;;;;;;;;;;;;;;17.86;100.00;98720.75;4881978;29;19957;-73
2022/05/08 14:40:59;;;;;;;;;;;;;;;17.65;100.00;98719.94;4873121;29;20405;-73
2022/05/08 14:43:27;;;;;;;;;;;;;;;17.40;100.00;98728.13;4880088;29;19956;-74
2022/05/08 14:45:54;;;;;;;;;;;;;;;17.42;100.00;98734.13;4880792;29;20385;-73
2022/05/08 14:48:22;;;;;;;;;;;;;;;17.38;100.00;98733.41;4877660;29;20384;-73
2022/05/08 14:50:49;;;;;;;;;;;;;;;17.28;100.00;98742.88;4882864;29;19954;-74
2022/05/08 14:53:16;;;;;;;;;;;;;;;17.04;100.00;98744.13;4872782;29;19948;-74
2022/05/08 14:55:45;;;;;;;;;;;;;;;16.98;100.00;98729.69;4878250;29;19951;-73
2022/05/08 14:58:14;;;;;;;;;;;;;;;16.93;100.00;98735.84;4879134;29;20377;-73
2022/05/08 15:00:42;;;;;;;;;;;;;;;16.85;100.00;98736.38;4881988;29;19969;-74
2022/05/08 15:03:09;;;;;;;;;;;;;;;16.77;100.00;98732.91;4882068;29;19970;-74
2022/05/08 15:05:37;;;;;;;;;;;;;;;16.68;100.00;98717.69;4876850;29;19949;-74
2022/05/08 15:08:04;;;;;;;;;;;;;;;16.61;100.00;98715.00;4883091;29;19951;-73
2022/05/08 15:10:33;;;;;;;;;;;;;;;16.60;100.00;98710.59;4901324;29;19949;-73
2022/05/08 15:13:00;;;;;;;;;;;;;;;16.52;100.00;98720.41;4893715;29;19951;-73
2022/05/08 15:15:30;;;;;;;;;;;;;;;16.41;100.00;98717.69;4881145;29;20210;-74
2022/05/08 15:20:44;;;;;;;;;;;;;;;16.37;100.00;98716.97;4878523;29;19967;-73
2022/05/08 15:23:11;;;;;;;;;;;;;;;16.38;100.00;98719.34;4880834;29;19952;-73
2022/05/08 15:25:38;;;;;;;;;;;;;;;16.27;100.00;98720.75;4882463;29;19948;-73
2022/05/08 15:28:05;;;;;;;;;;;;;;;16.19;100.00;98725.69;4882453;29;20385;-73
2022/05/08 15:30:33;;;;;;;;;;;;;;;16.09;100.00;98726.63;4879767;29;19950;-73
2022/05/08 15:33:00;;;;;;;;;;;;;;;16.21;100.00;98722.47;4888072;29;19955;-74
2022/05/08 15:35:27;;;;;;;;;;;;;;;16.28;100.00;98711.88;4882706;29;19956;-73
2022/05/08 15:37:56;;;;;;;;;;;;;;;16.31;100.00;98716.63;4884223;29;20264;-73
2022/05/08 15:40:26;;;;;;;;;;;;;;;16.17;100.00;98722.50;4883032;29;20244;-74
2022/05/08 15:42:53;;;;;;;;;;;;;;;16.18;100.00;98724.09;4884548;29;19964;-73
2022/05/08 15:45:20;;;;;;;;;;;;;;;16.21;100.00;98728.88;4884907;29;19954;-74
2022/05/08 15:47:48;;;;;;;;;;;;;;;16.19;100.00;98733.34;4886431;29;20260;-74
2022/05/08 15:50:16;;;;;;;;;;;;;;;16.21;100.00;98740.16;4884509;29;19954;-73
2022/05/08 15:52:43;;;;;;;;;;;;;;;16.20;100.00;98734.97;4888420;29;19950;-74
2022/05/08 15:55:10;;;;;;;;;;;;;;;16.20;100.00;98730.13;4885952;29;19949;-74
2022/05/08 15:57:37;;;;;;;;;;;;;;;16.20;100.00;98734.97;4893270;29;20334;-75
2022/05/08 16:00:06;;;;;;;;;;;;;;;16.21;100.00;98730.91;4886718;29;19950;-75
2022/05/08 16:02:41;;;;;;;;;;;;;;;16.22;100.00;98730.47;4883066;29;19972;-76
2022/05/08 16:05:09;;;;;;;;;;;;;;;16.21;100.00;98731.69;4884303;29;20358;-76
2022/05/08 16:07:37;;;;;;;;;;;;;;;16.23;100.00;98729.28;4883701;29;19958;-75
2022/05/08 16:10:05;;;;;;;;;;;;;;;16.24;100.00;98728.03;4882993;29;20419;-74
2022/05/08 16:23:41;;;;;;;;;;;;;;;16.17;100.00;98747.88;4884145;29;19948;-76
2022/05/08 16:26:09;;;;;;;;;;;;;;;16.18;100.00;98731.75;4878535;29;19951;-75
2022/05/08 16:28:37;;;;;;;;;;;;;;;16.13;100.00;98735.06;4884685;29;19996;-74
2022/05/08 16:31:05;;;;;;;;;;;;;;;16.05;100.00;98733.56;4884566;29;19959;-73
2022/05/08 16:33:32;;;;;;;;;;;;;;;15.97;100.00;98738.47;4884203;29;19949;-75
2022/05/08 16:36:01;;;;;;;;;;;;;;;15.91;100.00;98737.38;4886534;29;19958;-74
2022/05/08 16:38:28;;;;;;;;;;;;;;;15.86;100.00;98734.22;4883613;29;20869;-74
2022/05/08 16:40:56;;;;;;;;;;;;;;;15.80;100.00;98742.34;4882882;29;19954;-74
2022/05/08 16:43:23;;;;;;;;;;;;;;;15.80;100.00;98745.16;4881447;29;19951;-73
2022/05/08 16:45:50;;;;;;;;;;;;;;;15.78;100.00;98739.13;4884756;29;20327;-73
2022/05/08 16:48:17;;;;;;;;;;;;;;;15.74;100.00;98747.66;4885479;29;19955;-73
2022/05/08 16:50:45;;;;;;;;;;;;;;;15.69;100.00;98747.31;4883281;29;19961;-74
2022/05/08 16:53:12;;;;;;;;;;;;;;;15.64;100.00;98739.31;4886347;29;19957;-73
2022/05/08 16:55:40;;;;;;;;;;;;;;;15.64;100.00;98734.50;4887277;29;19958;-73
2022/05/08 16:58:08;;;;;;;;;;;;;;;15.62;100.00;98744.59;4889590;29;20346;-73
2022/05/08 17:00:37;;;;;;;;;;;;;;;15.55;100.00;98741.84;4882333;29;19956;-73
2022/05/08 17:03:05;;;;;;;;;;;;;;;15.54;100.00;98737.44;4890070;29;19973;-73
2022/05/08 17:05:32;;;;;;;;;;;;;;;15.52;100.00;98739.88;4892487;29;19958;-73
2022/05/08 17:07:59;;;;;;;;;;;;;;;15.51;100.00;98752.34;4883727;29;19947;-73
2022/05/08 17:10:28;;;;;;;;;;;;;;;15.48;100.00;98747.56;4883892;29;19954;-73
2022/05/08 17:12:56;;;;;;;;;;;;;;;15.50;100.00;98756.41;4883357;29;20377;-73
2022/05/08 17:15:23;;;;;;;;;;;;;;;15.48;100.00;98751.16;4880040;29;19954;-73
2022/05/08 17:17:51;;;;;;;;;;;;;;;15.46;100.00;98755.63;4882995;29;19958;-74
2022/05/08 17:20:18;;;;;;;;;;;;;;;15.44;100.00;98756.03;4882059;29;19953;-73
2022/05/08 17:22:45;;;;;;;;;;;;;;;15.44;100.00;98753.22;4882582;29;20260;-74
2022/05/08 17:25:12;;;;;;;;;;;;;;;15.45;100.00;98756.88;4883808;29;19950;-74
2022/05/08 17:30:26;;;;;;;;;;;;;;;15.52;100.00;98759.59;4882853;29;19962;-73
2022/05/08 17:32:53;;;;;;;;;;;;;;;15.53;100.00;98764.00;4883346;29;19957;-73
2022/05/08 17:35:21;;;;;;;;;;;;;;;15.51;100.00;98758.00;4883901;29;20244;-74
2022/05/08 17:37:48;;;;;;;;;;;;;;;15.49;100.00;98755.59;4880469;29;19949;-73
2022/05/08 17:40:15;;;;;;;;;;;;;;;15.41;100.00;98758.88;4883284;29;19959;-74
2022/05/08 17:42:43;;;;;;;;;;;;;;;15.34;100.00;98758.94;4883708;29;19966;-73
2022/05/08 17:45:10;;;;;;;;;;;;;;;15.30;100.00;98767.44;4881383;29;19947;-73
2022/05/08 17:47:37;;;;;;;;;;;;;;;15.27;100.00;98764.66;4884170;29;19959;-73
2022/05/08 17:50:05;;;;;;;;;;;;;;;15.25;100.00;98761.47;4881302;29;19954;-72
2022/05/08 17:52:33;;;;;;;;;;;;;;;15.16;100.00;98761.94;4881741;29;19950;-74
2022/05/08 17:55:02;;;;;;;;;;;;;;;15.12;100.00;98764.81;4884590;29;20340;-73
2022/05/08 17:57:29;;;;;;;;;;;;;;;15.07;100.00;98764.44;4881510;29;19951;-75
2022/05/08 17:59:56;;;;;;;;;;;;;;;15.02;100.00;98754.44;4883613;29;19957;-73
2022/05/08 18:07:57;;;;;;;;;;;;;;;15.00;100.00;98756.88;4891730;29;20394;-72
2022/05/08 18:10:24;;;;;;;;;;;;;;;14.92;100.00;98765.78;4884230;29;19955;-73
2022/05/08 18:12:52;;;;;;;;;;;;;;;14.89;100.00;98763.81;4885018;29;19949;-73
2022/05/08 18:15:19;;;;;;;;;;;;;;;14.85;100.00;98769.47;4889067;29;20243;-73
2022/05/08 18:17:47;;;;;;;;;;;;;;;14.79;100.00;98765.50;4893749;29;19950;-73
2022/05/08 18:20:14;;;;;;;;;;;;;;;14.75;100.00;98772.38;4886720;29;19983;-73
2022/05/08 18:22:42;;;;;;;;;;;;;;;14.67;100.00;98774.44;4887644;29;19964;-74
2022/05/08 18:25:10;;;;;;;;;;;;;;;14.66;100.00;98780.47;4892258;29;19946;-73
2022/05/08 18:27:37;;;;;;;;;;;;;;;14.62;100.00;98779.72;4887599;29;19967;-73
2022/05/08 18:30:05;;;;;;;;;;;;;;;14.58;100.00;98771.28;4889138;29;20232;-73
2022/05/08 18:32:33;;;;;;;;;;;;;;;14.52;100.00;98780.59;4898226;29;19958;-73
2022/05/08 18:35:00;;;;;;;;;;;;;;;14.44;100.00;98774.22;4897429;29;20248;-73
2022/05/08 18:37:28;;;;;;;;;;;;;;;14.37;100.00;98780.69;4883019;29;19946;-73
2022/05/08 18:39:57;;;;;;;;;;;;;;;14.33;100.00;98779.09;4887056;29;19953;-73
2022/05/08 18:42:25;;;;;;;;;;;;;;;14.28;100.00;98782.34;4884122;29;19974;-73
2022/05/08 18:44:53;;;;;;;;;;;;;;;14.22;100.00;98781.94;4887839;29;19957;-73
2022/05/08 18:47:20;;;;;;;;;;;;;;;14.15;100.00;98782.00;4893659;29;19945;-73
2022/05/08 18:49:48;;;;;;;;;;;;;;;14.10;100.00;98776.00;4886371;29;19947;-73
2022/05/08 18:52:15;;;;;;;;;;;;;;;14.07;100.00;98776.81;4880526;29;19953;-70
2022/05/08 18:54:42;;;;;;;;;;;;;;;14.02;100.00;98778.03;4881235;29;19948;-73
2022/05/08 18:57:10;;;;;;;;;;;;;;;13.99;100.00;98789.28;4878153;29;20073;-73
2022/05/08 18:59:37;;;;;;;;;;;;;;;13.98;100.00;98796.13;4893884;29;19950;-73
2022/05/08 19:02:04;;;;;;;;;;;;;;;14.01;100.00;98792.50;4882498;29;19953;-72
2022/05/08 19:04:33;;;;;;;;;;;;;;;14.02;100.00;98797.72;4881669;29;20285;-73
2022/05/08 19:07:01;;;;;;;;;;;;;;;14.04;100.00;98786.84;4878233;29;19965;-73
2022/05/08 19:09:28;;;;;;;;;;;;;;;14.05;100.00;98802.53;4894531;29;20342;-73
2022/05/08 19:11:55;;;;;;;;;;;;;;;14.07;100.00;98810.53;4890283;29;20164;-73
2022/05/08 19:14:23;;;;;;;;;;;;;;;14.08;100.00;98807.34;4868790;29;19957;-73
2022/05/08 19:16:51;;;;;;;;;;;;;;;14.09;100.00;98814.56;4882323;29;19950;-73
2022/05/08 19:19:19;;;;;;;;;;;;;;;14.09;100.00;98819.38;4884729;29;19950;-73
2022/05/08 19:21:49;;;;;;;;;;;;;;;14.10;100.00;98821.78;4879671;29;19955;-72
2022/05/08 19:24:16;;;;;;;;;;;;;;;14.10;100.00;98827.41;4883044;29;19974;-72
2022/05/08 19:26:43;;;;;;;;;;;;;;;14.10;100.00;98824.59;4887435;29;19958;-73
2022/05/08 19:29:10;;;;;;;;;;;;;;;14.11;100.00;98834.63;4885187;29;20352;-72
